Time;durP1;ratioP1;P1;durP2;ratioP2;P2;SDS_P1;SDS_P2;PMS_P1;PMS_P2;Temp;Humidity;BMP_temperature;BMP_pressure;BME280_temperature;BME280_humidity;BME280_pressure;Samples;Min_cycle;Max_cycle;Signal;HPM_P1;HPM_P2
2023/05/20 00:01:36;;;;;;;2.22;1.60;;;;;;;11.84;100.00;99730.41;5137919;28;20142;-54
2023/05/20 00:04:02;;;;;;;3.90;2.25;;;;;;;12.24;100.00;99757.53;5137747;28;20397;-57
2023/05/20 00:06:28;;;;;;;2.50;1.70;;;;;;;12.02;100.00;99781.03;5137797;27;20082;-57
2023/05/20 00:08:54;;;;;;;1.92;1.75;;;;;;;12.24;100.00;99796.03;5137827;28;20054;-59
2023/05/20 00:11:21;;;;;;;3.55;1.70;;;;;;;12.10;100.00;99803.19;5137761;28;20111;-53
2023/05/20 00:13:47;;;;;;;3.30;2.15;;;;;;;12.22;100.00;99798.34;5136817;27;20062;-55
2023/05/20 00:16:13;;;;;;;4.82;1.92;;;;;;;12.32;100.00;99813.47;5137623;28;20321;-56
2023/05/20 00:18:39;;;;;;;6.45;1.75;;;;;;;12.21;100.00;99815.19;5137463;28;20043;-60
2023/05/20 00:21:05;;;;;;;2.28;1.70;;;;;;;12.29;100.00;99827.13;5137538;28;20138;-53
2023/05/20 00:23:31;;;;;;;2.40;2.00;;;;;;;12.30;100.00;99817.75;5137465;28;20293;-54
2023/05/20 00:25:57;;;;;;;2.00;1.80;;;;;;;12.16;100.00;99826.47;5137433;28;20051;-55
2023/05/20 00:28:23;;;;;;;3.97;1.75;;;;;;;12.37;100.00;99809.66;5137308;28;20109;-57
2023/05/20 00:30:49;;;;;;;5.03;1.92;;;;;;;12.25;100.00;99838.06;5137630;28;20057;-56
2023/05/20 00:33:15;;;;;;;4.82;1.90;;;;;;;12.33;100.00;99833.50;5137286;28;20317;-58
2023/05/20 00:35:41;;;;;;;4.07;1.83;;;;;;;12.44;100.00;99843.59;5137459;27;20088;-58
2023/05/20 00:38:07;;;;;;;1.70;1.55;;;;;;;12.36;100.00;99841.84;5137349;28;20047;-61
2023/05/20 00:40:33;;;;;;;3.95;1.65;;;;;;;11.99;100.00;99850.44;5137397;28;20161;-61
2023/05/20 00:42:59;;;;;;;1.77;1.67;;;;;;;12.27;100.00;99840.47;5137320;28;20057;-55
2023/05/20 00:45:25;;;;;;;7.85;1.88;;;;;;;12.04;100.00;99826.59;5137254;27;20134;-56
2023/05/20 00:47:51;;;;;;;3.67;1.70;;;;;;;12.05;100.00;99820.75;5137239;28;20059;-56
2023/05/20 00:50:17;;;;;;;5.90;2.08;;;;;;;12.09;100.00;99820.81;5137166;28;20055;-52
2023/05/20 00:52:46;;;;;;;6.60;1.80;;;;;;;11.89;100.00;99819.97;5137021;28;20051;-61
2023/05/20 00:55:13;;;;;;;2.03;1.70;;;;;;;11.94;100.00;99793.03;5137028;28;20043;-60
2023/05/20 00:57:39;;;;;;;2.70;1.88;;;;;;;11.89;100.00;99800.75;5136947;28;20043;-54
2023/05/20 01:00:07;;;;;;;4.32;1.83;;;;;;;11.92;100.00;99789.03;5137130;28;20107;-57
2023/05/20 01:02:34;;;;;;;4.15;1.73;;;;;;;11.77;100.00;99790.66;5137141;28;20083;-58
2023/05/20 01:05:00;;;;;;;3.65;1.88;;;;;;;11.98;100.00;99788.41;5137028;27;20089;-59
2023/05/20 01:07:26;;;;;;;2.55;1.95;;;;;;;11.98;100.00;99802.13;5136863;28;20051;-55
2023/05/20 01:09:54;;;;;;;1.92;1.77;;;;;;;11.95;100.00;99804.81;5137004;28;20059;-58
2023/05/20 01:12:25;;;;;;;4.15;1.60;;;;;;;11.60;100.00;99780.84;5136745;28;20066;-55
2023/05/20 01:14:59;;;;;;;4.10;1.63;;;;;;;11.83;100.00;99777.41;5136797;28;20051;-55
2023/05/20 01:17:26;;;;;;;4.88;1.67;;;;;;;11.68;100.00;99763.38;5136813;28;20337;-55
2023/05/20 01:19:55;;;;;;;10.20;2.00;;;;;;;11.86;100.00;99768.50;5136615;28;20115;-57
2023/05/20 01:22:24;;;;;;;3.72;1.70;;;;;;;11.54;100.00;99741.88;5136651;28;20047;-53
2023/05/20 01:24:52;;;;;;;3.65;1.60;;;;;;;11.63;100.00;99738.13;5137573;27;20340;-56
2023/05/20 01:27:21;;;;;;;7.40;1.95;;;;;;;11.69;100.00;99720.22;5140405;28;20370;-55
2023/05/20 01:29:49;;;;;;;3.95;2.00;;;;;;;11.67;100.00;99736.28;5140367;28;20047;-59
2023/05/20 01:32:20;;;;;;;3.83;1.90;;;;;;;11.59;100.00;99712.53;5140264;28;20066;-58
2023/05/20 01:34:49;;;;;;;3.65;2.00;;;;;;;11.35;100.00;99706.13;5140252;28;20142;-60
2023/05/20 01:37:16;;;;;;;2.83;1.98;;;;;;;11.38;100.00;99704.59;5140089;27;20450;-60
2023/05/20 01:39:43;;;;;;;2.20;1.58;;;;;;;11.20;100.00;99694.00;5140000;28;20438;-54
2023/05/20 01:42:10;;;;;;;3.40;2.00;;;;;;;11.38;100.00;99668.94;5140004;28;20057;-60
2023/05/20 01:44:36;;;;;;;4.57;1.73;;;;;;;11.24;100.00;99659.22;5139947;28;20142;-55
2023/05/20 01:47:03;;;;;;;5.68;1.98;;;;;;;11.14;100.00;99662.50;5139903;28;20412;-58
2023/05/20 01:49:29;;;;;;;9.07;1.70;;;;;;;11.23;100.00;99648.56;5139869;28;20047;-51
2023/05/20 01:51:55;;;;;;;2.78;1.98;;;;;;;11.28;100.00;99651.84;5139858;28;20058;-58
2023/05/20 01:54:21;;;;;;;5.45;1.70;;;;;;;11.27;100.00;99653.00;5139944;28;20146;-56
2023/05/20 01:56:47;;;;;;;1.80;1.67;;;;;;;11.13;100.00;99647.19;5139947;28;20108;-54
2023/05/20 01:59:13;;;;;;;6.35;1.90;;;;;;;11.05;100.00;99646.22;5139625;28;20050;-57
2023/05/20 02:01:39;;;;;;;4.82;2.38;;;;;;;11.10;100.00;99620.47;5139818;28;20147;-57
2023/05/20 02:04:05;;;;;;;4.53;1.90;;;;;;;11.18;100.00;99621.44;5139792;28;20210;-54
2023/05/20 02:06:31;;;;;;;3.80;1.92;;;;;;;11.12;100.00;99618.16;5139478;27;20385;-50
2023/05/20 02:08:57;;;;;;;7.88;1.77;;;;;;;11.21;100.00;99637.97;5139572;28;20061;-52
2023/05/20 02:11:22;;;;;;;3.15;1.73;;;;;;;11.12;100.00;99633.81;5139573;28;20058;-56
2023/05/20 02:13:49;;;;;;;3.05;1.52;;;;;;;11.37;100.00;99650.88;5139518;28;20043;-58
2023/05/20 02:16:15;;;;;;;5.90;1.73;;;;;;;11.23;100.00;99654.88;5139455;27;20434;-60
2023/05/20 02:18:41;;;;;;;3.55;1.92;;;;;;;11.38;100.00;99656.00;5139287;27;20061;-60
2023/05/20 02:21:07;;;;;;;3.45;1.98;;;;;;;11.27;100.00;99647.53;5139322;28;20289;-51
2023/05/20 02:23:34;;;;;;;6.45;2.17;;;;;;;11.52;100.00;99655.50;5139601;28;20051;-56
2023/05/20 02:26:00;;;;;;;2.20;1.35;;;;;;;11.37;100.00;99643.44;5139300;28;20071;-56
2023/05/20 02:28:26;;;;;;;4.88;1.70;;;;;;;11.23;100.00;99634.84;5139481;28;20213;-59
2023/05/20 02:30:52;;;;;;;1.98;1.70;;;;;;;11.36;100.00;99647.31;5139376;28;20111;-60
2023/05/20 02:33:19;;;;;;;3.78;1.77;;;;;;;11.54;100.00;99647.72;5139294;28;20154;-60
2023/05/20 02:35:45;;;;;;;2.58;1.50;;;;;;;11.16;100.00;99649.25;5139191;27;20055;-53
2023/05/20 02:38:11;;;;;;;4.18;1.70;;;;;;;11.42;100.00;99659.59;5138432;27;20385;-56
2023/05/20 02:40:37;;;;;;;4.57;1.73;;;;;;;12.03;100.00;99688.41;5138951;28;20453;-57
2023/05/20 02:43:03;;;;;;;3.92;1.55;;;;;;;12.21;100.00;99744.53;5138961;28;20047;-61
2023/05/20 02:45:29;;;;;;;3.97;1.55;;;;;;;12.39;100.00;99785.31;5138869;28;20050;-56
2023/05/20 02:47:56;;;;;;;4.63;1.50;;;;;;;12.60;100.00;99823.47;5138889;28;20050;-51
2023/05/20 02:50:22;;;;;;;4.30;1.65;;;;;;;13.11;100.00;99862.59;5138859;28;20448;-53
2023/05/20 02:52:48;;;;;;;2.17;1.70;;;;;;;12.84;100.00;99860.91;5138952;28;20050;-54
2023/05/20 02:55:14;;;;;;;3.30;1.67;;;;;;;12.79;100.00;99848.22;5138966;27;20189;-53
2023/05/20 02:57:40;;;;;;;2.42;1.40;;;;;;;12.26;100.00;99814.91;5138909;28;20387;-60
2023/05/20 03:00:09;;;;;;;2.63;1.40;;;;;;;12.13;100.00;99799.69;5138749;28;20055;-60
2023/05/20 03:02:36;;;;;;;2.08;1.73;;;;;;;12.12;100.00;99774.16;5138711;28;20051;-54
2023/05/20 03:05:04;;;;;;;3.50;1.45;;;;;;;12.18;100.00;99748.00;5138496;27;20430;-60
2023/05/20 03:07:30;;;;;;;6.13;1.40;;;;;;;12.26;100.00;99748.94;5138592;28;20051;-57
2023/05/20 03:09:57;;;;;;;1.83;1.40;;;;;;;12.07;100.00;99770.94;5138592;28;20080;-54
2023/05/20 03:12:25;;;;;;;2.03;1.65;;;;;;;11.93;100.00;99766.72;5138444;28;20047;-54
2023/05/20 03:14:54;;;;;;;1.77;1.50;;;;;;;12.19;100.00;99777.06;5138350;28;20043;-59
2023/05/20 03:17:19;;;;;;;2.13;1.38;;;;;;;12.15;100.00;99759.72;5138613;28;20115;-57
2023/05/20 03:19:45;;;;;;;3.20;1.77;;;;;;;11.69;100.00;99742.19;5138236;28;20058;-60
2023/05/20 03:22:12;;;;;;;4.90;1.75;;;;;;;11.97;100.00;99733.81;5138541;28;20146;-60
2023/05/20 03:24:38;;;;;;;3.35;1.58;;;;;;;11.81;100.00;99727.53;5138442;28;20055;-61
2023/05/20 03:27:04;;;;;;;5.05;1.48;;;;;;;12.10;100.00;99723.50;5138409;28;20074;-60
2023/05/20 03:29:30;;;;;;;2.97;1.60;;;;;;;11.68;100.00;99700.19;5138327;28;20341;-58
2023/05/20 03:31:56;;;;;;;3.15;1.60;;;;;;;11.89;100.00;99718.31;5138247;28;20047;-57
2023/05/20 03:34:22;;;;;;;3.40;1.80;;;;;;;11.95;100.00;99700.41;5138230;28;20047;-59
2023/05/20 03:36:50;;;;;;;1.77;1.30;;;;;;;11.91;100.00;99700.31;5138006;27;20051;-57
2023/05/20 03:39:16;;;;;;;3.40;2.25;;;;;;;12.20;100.00;99744.91;5137925;28;20058;-51
2023/05/20 03:41:42;;;;;;;2.75;1.38;;;;;;;12.54;100.00;99769.91;5137989;28;20099;-53
2023/05/20 03:44:08;;;;;;;4.30;1.38;;;;;;;12.99;100.00;99796.69;5137918;28;20133;-52
2023/05/20 03:46:34;;;;;;;3.53;1.77;;;;;;;14.10;100.00;99890.28;5138192;28;20133;-52
2023/05/20 03:49:01;;;;;;;2.63;1.50;;;;;;;14.39;100.00;99973.44;5136943;27;20368;-60
2023/05/20 03:51:27;;;;;;;1.90;1.20;;;;;;;14.98;100.00;100018.88;5138022;28;20051;-60
2023/05/20 03:53:53;;;;;;;2.63;1.08;;;;;;;14.41;100.00;100033.78;5137801;28;20431;-53
2023/05/20 03:56:20;;;;;;;3.53;1.45;;;;;;;14.28;100.00;100005.56;5137954;28;20107;-58
2023/05/20 03:58:46;;;;;;;4.10;1.15;;;;;;;14.02;100.00;99990.56;5137716;28;20051;-56
2023/05/20 04:01:13;;;;;;;5.55;1.42;;;;;;;13.88;100.00;99982.06;5137715;28;20047;-54
2023/05/20 04:03:39;;;;;;;4.53;1.50;;;;;;;13.64;100.00;99956.44;5137715;28;20068;-52
2023/05/20 04:06:05;;;;;;;1.20;1.00;;;;;;;13.56;100.00;99954.75;5137627;27;20142;-52
2023/05/20 04:08:30;;;;;;;3.60;1.35;;;;;;;13.85;100.00;99927.66;5137642;28;20320;-55
2023/05/20 04:10:56;;;;;;;2.13;1.15;;;;;;;13.75;100.00;99962.16;5137552;28;20078;-55
2023/05/20 04:13:24;;;;;;;2.00;1.30;;;;;;;14.02;100.00;99973.25;5137602;28;20134;-59
2023/05/20 04:15:51;;;;;;;4.15;1.13;;;;;;;14.08;100.00;99991.06;5137805;28;20047;-55
2023/05/20 04:18:17;;;;;;;2.42;1.30;;;;;;;14.23;100.00;99992.91;5137526;28;20466;-59
2023/05/20 04:20:45;;;;;;;3.80;1.08;;;;;;;13.90;100.00;100007.31;5137681;28;20114;-53
2023/05/20 04:23:12;;;;;;;1.45;1.35;;;;;;;14.43;100.00;100010.16;5137616;28;20062;-54
2023/05/20 04:25:40;;;;;;;4.32;1.55;;;;;;;13.88;100.00;99968.28;5137606;28;20047;-53
2023/05/20 04:28:06;;;;;;;5.10;1.40;;;;;;;14.10;100.00;99959.22;5137372;28;20430;-60
2023/05/20 04:30:34;;;;;;;1.25;1.10;;;;;;;14.17;100.00;99953.00;5137350;28;20051;-52
2023/05/20 04:33:02;;;;;;;4.43;1.60;;;;;;;14.17;100.00;99993.59;5137346;28;20516;-56
2023/05/20 04:35:28;;;;;;;2.75;1.45;;;;;;;14.46;100.00;99990.13;5137300;27;20047;-58
2023/05/20 04:37:54;;;;;;;2.30;1.15;;;;;;;14.56;100.00;99996.97;5137203;28;20134;-60
2023/05/20 04:40:20;;;;;;;2.72;1.20;;;;;;;14.97;100.00;99995.22;5137105;28;20047;-53
2023/05/20 04:42:46;;;;;;;3.65;1.50;;;;;;;14.88;100.00;100016.75;5137245;28;20051;-59
2023/05/20 04:45:12;;;;;;;2.70;1.38;;;;;;;14.86;100.00;100030.16;5137350;28;20400;-61
2023/05/20 04:47:40;;;;;;;5.30;1.27;;;;;;;15.06;100.00;100034.38;5137424;28;20047;-58
2023/05/20 04:50:09;;;;;;;3.22;1.20;;;;;;;15.28;100.00;100051.22;5137045;28;20142;-60
2023/05/20 04:52:35;;;;;;;4.22;1.17;;;;;;;15.38;100.00;100052.53;5137175;28;20344;-58
2023/05/20 04:55:01;;;;;;;4.40;1.20;;;;;;;15.31;100.00;100056.00;5137138;28;20047;-61
2023/05/20 04:57:27;;;;;;;2.88;1.02;;;;;;;15.44;100.00;100035.25;5137000;28;20108;-60
2023/05/20 04:59:57;;;;;;;2.35;1.50;;;;;;;15.34;100.00;100021.31;5137736;27;20093;-56
2023/05/20 05:02:23;;;;;;;4.90;1.20;;;;;;;15.43;100.00;100049.47;5140649;28;20062;-53
2023/05/20 05:04:50;;;;;;;4.53;1.27;;;;;;;15.48;100.00;100073.97;5140555;28;20051;-59
2023/05/20 05:07:16;;;;;;;2.00;0.95;;;;;;;16.53;100.00;100109.88;5140417;27;20137;-60
2023/05/20 05:09:42;;;;;;;3.88;1.63;;;;;;;17.11;100.00;100120.25;5140460;28;20065;-59
2023/05/20 05:12:08;;;;;;;1.83;1.20;;;;;;;17.01;100.00;100134.84;5140807;28;20047;-56
2023/05/20 05:14:33;;;;;;;4.32;1.33;;;;;;;17.75;100.00;100167.72;5140411;28;20395;-54
2023/05/20 05:16:59;;;;;;;5.85;1.13;;;;;;;18.96;100.00;100180.38;5140334;28;20051;-53
2023/05/20 05:19:25;;;;;;;3.42;1.30;;;;;;;18.25;100.00;100179.06;5140345;28;20062;-51
2023/05/20 05:21:52;;;;;;;7.45;1.33;;;;;;;19.78;96.48;100193.38;5140470;28;20134;-52
2023/05/20 05:24:18;;;;;;;3.22;1.10;;;;;;;20.01;92.56;100204.84;5140328;28;20054;-53
2023/05/20 05:26:44;;;;;;;4.88;1.40;;;;;;;20.75;86.98;100208.44;5140335;28;20051;-53
2023/05/20 05:29:10;;;;;;;2.72;1.48;;;;;;;19.96;91.38;100205.25;5140312;28;20115;-58
2023/05/20 05:31:36;;;;;;;2.28;1.38;;;;;;;20.97;82.22;100219.44;5140065;28;20051;-61
2023/05/20 05:34:01;;;;;;;4.47;1.23;;;;;;;21.69;78.10;100223.16;5140173;28;20057;-60
2023/05/20 05:36:27;;;;;;;1.15;1.08;;;;;;;20.83;79.44;100226.69;5140033;27;20294;-57
2023/05/20 05:38:54;;;;;;;5.78;1.50;;;;;;;21.01;79.19;100223.75;5139943;28;20409;-55
2023/05/20 05:41:21;;;;;;;6.43;1.00;;;;;;;21.26;77.66;100228.34;5140002;27;20320;-54
2023/05/20 05:43:47;;;;;;;7.88;2.90;;;;;;;21.59;73.65;100229.66;5139924;28;20057;-56
2023/05/20 05:46:13;;;;;;;4.18;1.50;;;;;;;21.95;73.91;100227.25;5140221;28;20134;-55
2023/05/20 05:48:41;;;;;;;4.05;1.30;;;;;;;20.89;75.77;100235.41;5140011;28;20313;-59
2023/05/20 05:51:07;;;;;;;5.60;1.58;;;;;;;22.46;75.31;100233.03;5140030;28;20130;-54
2023/05/20 05:53:33;;;;;;;1.33;1.20;;;;;;;21.12;74.20;100230.03;5139743;28;20478;-57
2023/05/20 05:55:59;;;;;;;3.42;1.20;;;;;;;22.09;73.24;100240.25;5139807;28;20103;-56
2023/05/20 05:58:25;;;;;;;4.65;1.38;;;;;;;22.21;72.46;100242.53;5139776;28;20137;-57
2023/05/20 06:00:51;;;;;;;1.67;1.00;;;;;;;21.94;73.38;100236.84;5139545;28;20073;-57
2023/05/20 06:03:18;;;;;;;3.97;1.73;;;;;;;20.67;79.04;100226.41;5139627;28;20192;-53
2023/05/20 06:05:45;;;;;;;4.30;1.20;;;;;;;21.66;73.52;100229.59;5139544;27;20047;-58
2023/05/20 06:08:11;;;;;;;4.32;1.30;;;;;;;21.85;70.90;100242.13;5139491;28;20427;-60
2023/05/20 06:10:37;;;;;;;2.38;1.40;;;;;;;20.98;73.33;100244.09;5139666;27;20149;-61
2023/05/20 06:13:03;;;;;;;3.70;1.50;;;;;;;19.71;82.14;100228.38;5138628;28;20107;-60
2023/05/20 06:15:29;;;;;;;10.25;1.48;;;;;;;21.42;74.78;100242.56;5139602;28;20523;-61
2023/05/20 06:17:55;;;;;;;5.97;1.17;;;;;;;21.71;73.53;100248.66;5139593;28;20078;-61
2023/05/20 06:20:21;;;;;;;1.85;1.00;;;;;;;22.36;69.98;100243.16;5139396;28;20150;-59
2023/05/20 06:22:47;;;;;;;1.38;0.98;;;;;;;21.65;71.05;100233.56;5139398;28;20051;-57
2023/05/20 06:25:13;;;;;;;0.80;0.80;;;;;;;22.14;69.12;100241.81;5139235;28;20062;-55
2023/05/20 06:27:39;;;;;;;2.90;1.30;;;;;;;21.93;69.36;100232.50;5139221;28;20058;-60
2023/05/20 06:30:07;;;;;;;4.63;1.42;;;;;;;21.03;72.29;100229.75;5139091;28;20130;-54
2023/05/20 06:32:33;;;;;;;1.85;1.40;;;;;;;21.46;70.81;100232.19;5139082;28;20047;-59
2023/05/20 06:34:59;;;;;;;2.13;0.93;;;;;;;21.54;70.89;100230.13;5138858;27;20061;-57
2023/05/20 06:37:25;;;;;;;2.10;1.00;;;;;;;22.40;68.66;100235.53;5138943;28;20141;-55
2023/05/20 06:39:52;;;;;;;2.25;1.00;;;;;;;22.20;66.43;100245.75;5138665;27;20086;-53
2023/05/20 06:42:19;;;;;;;1.70;0.90;;;;;;;21.22;69.54;100247.09;5138826;28;20323;-59
2023/05/20 06:44:45;;;;;;;4.22;1.25;;;;;;;20.68;72.38;100239.91;5138916;28;20043;-56
2023/05/20 06:47:14;;;;;;;4.13;1.23;;;;;;;21.29;70.91;100247.84;5138851;28;20090;-58
2023/05/20 06:49:40;;;;;;;1.00;0.98;;;;;;;22.30;68.40;100240.03;5138918;28;20138;-59
2023/05/20 06:52:06;;;;;;;4.95;1.30;;;;;;;21.83;69.22;100236.97;5138799;28;20561;-60
2023/05/20 06:54:34;;;;;;;1.85;1.30;;;;;;;22.63;66.29;100248.78;5138748;28;20142;-53
2023/05/20 06:57:00;;;;;;;1.85;1.05;;;;;;;22.16;67.25;100231.84;5138752;28;20047;-61
2023/05/20 06:59:26;;;;;;;3.20;0.85;;;;;;;22.33;66.47;100251.59;5138631;28;20051;-59
2023/05/20 07:01:52;;;;;;;2.65;1.10;;;;;;;22.26;66.65;100249.69;5138646;28;20141;-60
2023/05/20 07:04:19;;;;;;;2.90;1.20;;;;;;;22.38;66.79;100246.31;5138549;27;20051;-62
2023/05/20 07:06:45;;;;;;;2.22;1.10;;;;;;;21.33;66.06;100245.03;5138448;27;20047;-58
2023/05/20 07:09:11;;;;;;;2.17;0.98;;;;;;;21.47;67.72;100244.13;5138735;28;20090;-60
2023/05/20 07:11:36;;;;;;;2.90;1.15;;;;;;;21.02;67.46;100253.22;5138667;28;20047;-55
2023/05/20 07:14:02;;;;;;;3.75;0.95;;;;;;;20.93;66.95;100241.75;5138318;28;20128;-52
2023/05/20 07:16:28;;;;;;;0.82;0.80;;;;;;;21.25;66.99;100252.66;5138406;27;20133;-53
2023/05/20 07:18:54;;;;;;;2.50;0.98;;;;;;;22.17;66.15;100238.22;5138394;28;20065;-58
2023/05/20 07:21:21;;;;;;;2.35;0.90;;;;;;;21.97;64.93;100244.41;5138478;28;20185;-61
2023/05/20 07:23:47;;;;;;;2.60;1.10;;;;;;;22.01;66.23;100245.16;5137920;27;20138;-58
2023/05/20 07:26:13;;;;;;;2.28;1.00;;;;;;;22.74;64.15;100243.03;5138224;28;20047;-59
2023/05/20 07:28:39;;;;;;;0.90;0.90;;;;;;;22.65;63.47;100232.38;5138086;28;20047;-56
2023/05/20 07:31:05;;;;;;;2.47;1.10;;;;;;;22.15;65.45;100238.63;5138209;28;20055;-53
2023/05/20 07:33:31;;;;;;;1.98;0.90;;;;;;;22.82;64.05;100236.09;5137982;28;20316;-56
2023/05/20 07:35:57;;;;;;;1.83;1.15;;;;;;;22.71;64.10;100241.06;5138006;27;20111;-56
2023/05/20 07:38:24;;;;;;;13.73;1.20;;;;;;;23.28;61.76;100233.81;5138054;28;20408;-51
2023/05/20 07:40:50;;;;;;;3.85;0.98;;;;;;;24.03;60.41;100238.84;5138155;28;20055;-53
2023/05/20 07:43:16;;;;;;;2.80;0.80;;;;;;;23.06;61.03;100245.38;5138228;27;20047;-58
2023/05/20 07:45:42;;;;;;;1.05;0.85;;;;;;;22.58;59.57;100238.06;5138217;28;20061;-61
2023/05/20 07:48:09;;;;;;;3.53;0.90;;;;;;;23.77;60.05;100231.38;5137874;28;20153;-55
2023/05/20 07:50:35;;;;;;;3.05;0.93;;;;;;;23.91;60.02;100229.06;5137893;28;20065;-61
2023/05/20 07:53:01;;;;;;;3.42;0.90;;;;;;;22.96;59.03;100227.56;5138009;28;20369;-54
2023/05/20 07:55:28;;;;;;;6.55;0.88;;;;;;;22.52;58.33;100225.75;5137817;28;20060;-53
2023/05/20 07:57:54;;;;;;;3.67;0.80;;;;;;;22.92;59.28;100231.56;5137851;28;20065;-57
2023/05/20 08:00:20;;;;;;;2.28;1.20;;;;;;;23.61;58.87;100221.63;5137613;28;20483;-55
2023/05/20 08:02:46;;;;;;;4.43;1.00;;;;;;;22.98;58.56;100218.72;5137796;28;20051;-60
2023/05/20 08:05:12;;;;;;;6.90;1.02;;;;;;;22.76;57.37;100232.22;5137651;27;20081;-55
2023/05/20 08:07:38;;;;;;;2.97;0.93;;;;;;;22.87;58.55;100226.47;5137559;28;20503;-54
2023/05/20 08:10:05;;;;;;;8.60;1.10;;;;;;;23.16;56.71;100235.22;5137623;27;20083;-54
2023/05/20 08:12:31;;;;;;;3.95;1.00;;;;;;;23.27;55.94;100243.44;5137590;28;20484;-60
2023/05/20 08:14:57;;;;;;;2.60;0.85;;;;;;;23.25;56.14;100230.66;5137638;27;20427;-59
2023/05/20 08:17:23;;;;;;;4.10;1.02;;;;;;;23.20;56.92;100224.78;5137662;28;20046;-59
2023/05/20 08:19:49;;;;;;;1.77;0.90;;;;;;;23.80;55.73;100222.13;5137389;28;20656;-53
2023/05/20 08:22:15;;;;;;;4.35;1.10;;;;;;;23.86;55.24;100229.59;5137477;28;20123;-55
2023/05/20 08:24:41;;;;;;;1.15;0.80;;;;;;;23.28;54.79;100217.81;5137509;28;20075;-61
2023/05/20 08:27:07;;;;;;;3.85;1.00;;;;;;;24.06;54.83;100224.00;5137343;28;20440;-60
2023/05/20 08:29:35;;;;;;;2.67;0.98;;;;;;;23.64;55.36;100219.97;5137329;27;20143;-54
2023/05/20 08:32:01;;;;;;;4.43;0.90;;;;;;;23.93;56.24;100212.66;5137177;27;20138;-60
2023/05/20 08:34:27;;;;;;;2.72;0.73;;;;;;;23.99;57.60;100220.53;5136509;27;20372;-52
2023/05/20 08:36:53;;;;;;;1.77;1.08;;;;;;;23.55;55.36;100208.56;5137077;27;20058;-55
2023/05/20 08:39:19;;;;;;;5.68;1.30;;;;;;;23.97;54.58;100209.78;5137305;28;20158;-57
2023/05/20 08:41:46;;;;;;;5.93;1.23;;;;;;;23.63;55.63;100204.41;5137360;28;20065;-58
2023/05/20 08:44:12;;;;;;;3.95;1.20;;;;;;;22.76;57.10;100204.28;5137291;28;20050;-61
2023/05/20 08:46:40;;;;;;;3.85;0.98;;;;;;;23.73;55.82;100203.44;5137319;28;20401;-56
2023/05/20 08:49:06;;;;;;;3.65;1.10;;;;;;;24.60;54.38;100209.63;5137087;28;20154;-55
2023/05/20 08:51:35;;;;;;;2.05;1.10;;;;;;;24.23;54.93;100204.44;5137004;28;20133;-52
2023/05/20 08:54:02;;;;;;;6.28;1.30;;;;;;;24.86;53.73;100218.25;5136933;28;20412;-57
2023/05/20 08:56:28;;;;;;;1.83;1.10;;;;;;;24.90;51.96;100207.72;5136936;28;20138;-59
2023/05/20 08:58:54;;;;;;;3.25;1.00;;;;;;;24.40;51.67;100194.84;5136815;28;20058;-60
2023/05/20 09:01:23;;;;;;;3.30;1.10;;;;;;;24.28;51.23;100204.69;5136941;28;20062;-56
2023/05/20 09:03:49;;;;;;;0.80;0.80;;;;;;;24.21;51.08;100202.06;5136609;28;20063;-56
2023/05/20 09:06:18;;;;;;;2.40;1.00;;;;;;;24.12;50.24;100188.63;5136787;27;20051;-57
2023/05/20 09:08:45;;;;;;;17.67;1.13;;;;;;;24.01;51.57;100190.88;5136824;28;20051;-56
2023/05/20 09:11:11;;;;;;;2.88;0.98;;;;;;;24.25;50.36;100185.16;5136964;28;20075;-57
2023/05/20 09:13:37;;;;;;;2.38;1.10;;;;;;;23.54;51.09;100181.78;5136865;28;20130;-59
2023/05/20 09:16:04;;;;;;;3.00;1.05;;;;;;;23.87;50.73;100186.34;5136741;28;20436;-60
2023/05/20 09:18:30;;;;;;;1.00;0.90;;;;;;;22.83;50.88;100201.38;5136722;27;20142;-58
2023/05/20 09:20:57;;;;;;;2.45;2.03;;;;;;;23.69;50.97;100189.53;5136650;28;20051;-61
2023/05/20 09:23:24;;;;;;;7.05;2.20;;;;;;;23.68;49.70;100189.94;5136675;28;20057;-59
2023/05/20 09:25:51;;;;;;;2.20;1.80;;;;;;;24.89;48.12;100192.94;5136663;28;20111;-60
2023/05/20 09:28:19;;;;;;;2.85;1.40;;;;;;;24.87;47.40;100195.38;5136530;28;20050;-60
2023/05/20 09:30:47;;;;;;;6.35;3.50;;;;;;;24.26;48.03;100183.94;5136588;27;20147;-56
2023/05/20 09:33:13;;;;;;;2.10;1.23;;;;;;;24.10;46.98;100190.31;5136767;28;20051;-55
2023/05/20 09:35:40;;;;;;;3.33;1.27;;;;;;;23.23;46.66;100198.75;5136687;27;20400;-55
2023/05/20 09:38:10;;;;;;;2.05;1.20;;;;;;;23.05;46.65;100181.47;5136568;28;20404;-61
2023/05/20 09:40:37;;;;;;;3.17;1.50;;;;;;;23.46;47.36;100181.16;5136585;28;20051;-57
2023/05/20 09:43:04;;;;;;;3.85;1.35;;;;;;;22.68;48.56;100195.19;5136520;28;20142;-56
2023/05/20 09:45:30;;;;;;;3.00;1.10;;;;;;;22.05;47.45;100195.63;5136729;27;20196;-55
2023/05/20 09:47:56;;;;;;;2.03;1.48;;;;;;;22.92;47.11;100179.22;5139911;28;20061;-59
2023/05/20 09:50:23;;;;;;;5.75;1.33;;;;;;;23.04;46.51;100175.09;5139882;28;20043;-55
2023/05/20 09:52:51;;;;;;;6.20;1.30;;;;;;;22.42;48.07;100184.81;5139863;28;20046;-57
2023/05/20 09:55:19;;;;;;;4.05;1.50;;;;;;;22.36;49.17;100172.50;5139744;28;20047;-58
2023/05/20 09:57:46;;;;;;;17.52;1.83;;;;;;;22.80;48.62;100163.06;5139724;27;20051;-58
2023/05/20 10:00:16;;;;;;;1.25;1.02;;;;;;;22.14;48.03;100181.16;5139844;28;20130;-60
2023/05/20 10:02:43;;;;;;;5.03;1.75;;;;;;;22.63;48.38;100169.75;5139924;28;20079;-56
2023/05/20 10:05:15;;;;;;;7.88;1.52;;;;;;;22.09;48.99;100181.63;5139598;27;20061;-57
2023/05/20 10:08:02;;;;;;;3.95;1.50;;;;;;;23.34;48.29;100168.56;5139704;28;20051;-54
2023/05/20 10:10:39;;;;;;;5.38;1.23;;;;;;;23.09;48.11;100171.81;5139702;28;20073;-58
2023/05/20 10:13:17;;;;;;;9.05;1.50;;;;;;;22.50;48.41;100161.16;5139684;28;20051;-61
2023/05/20 10:15:53;;;;;;;5.50;1.67;;;;;;;22.07;49.44;100179.25;5139391;27;20133;-60
2023/05/20 10:18:31;;;;;;;1.50;1.40;;;;;;;21.77;50.07;100176.44;5139445;28;20051;-53
2023/05/20 10:20:57;;;;;;;1.42;1.15;;;;;;;21.36;49.83;100178.09;5139426;28;20061;-56
2023/05/20 10:23:27;;;;;;;1.88;1.50;;;;;;;21.01;49.82;100173.59;5139579;28;20391;-53
2023/05/20 10:25:55;;;;;;;1.77;1.40;;;;;;;21.43;49.56;100188.38;5139312;28;20051;-58
2023/05/20 10:28:31;;;;;;;2.95;1.58;;;;;;;22.12;49.75;100171.63;5139319;28;20100;-54
2023/05/20 10:30:58;;;;;;;1.95;1.30;;;;;;;22.40;49.21;100160.09;5139245;27;20104;-60
2023/05/20 10:33:25;;;;;;;4.10;1.20;;;;;;;22.61;48.71;100167.34;5139270;28;20120;-60
2023/05/20 10:35:52;;;;;;;1.73;1.45;;;;;;;21.95;49.25;100167.84;5139117;27;20058;-59
2023/05/20 10:38:19;;;;;;;1.77;1.20;;;;;;;22.17;48.58;100157.22;5139140;28;20055;-53
2023/05/20 10:40:45;;;;;;;1.98;1.15;;;;;;;22.27;48.97;100150.69;5138996;28;20138;-57
2023/05/20 10:43:13;;;;;;;2.00;1.40;;;;;;;23.34;48.50;100139.78;5139044;27;20051;-53
2023/05/20 10:45:49;;;;;;;1.48;1.10;;;;;;;22.38;48.87;100145.75;5139145;28;20048;-53
2023/05/20 10:48:24;;;;;;;3.90;1.02;;;;;;;23.04;48.68;100138.72;5139076;28;20051;-54
2023/05/20 10:50:53;;;;;;;8.18;1.70;;;;;;;22.69;49.43;100126.91;5138960;28;20050;-52
2023/05/20 10:53:22;;;;;;;9.48;2.03;;;;;;;22.38;48.84;100148.53;5138880;28;20051;-58
2023/05/20 10:55:50;;;;;;;10.32;2.55;;;;;;;21.78;49.27;100136.94;5138905;28;20146;-59
2023/05/20 10:58:17;;;;;;;4.15;1.25;;;;;;;21.38;50.47;100133.03;5138137;27;20058;-56
2023/05/20 11:00:43;;;;;;;1.63;1.23;;;;;;;21.19;51.59;100145.53;5138729;28;20134;-60
2023/05/20 11:03:11;;;;;;;2.38;0.93;;;;;;;21.44;51.83;100147.31;5138622;28;20121;-56
2023/05/20 11:05:38;;;;;;;2.00;0.90;;;;;;;21.59;53.22;100130.00;5138788;27;20051;-60
2023/05/20 11:08:07;;;;;;;4.03;1.50;;;;;;;20.66;52.10;100135.66;5138821;28;20157;-52
2023/05/20 11:10:33;;;;;;;2.08;0.98;;;;;;;20.43;52.04;100119.50;5138575;28;20065;-58
2023/05/20 11:13:01;;;;;;;2.33;1.00;;;;;;;21.17;52.84;100116.50;5138652;28;20051;-52
2023/05/20 11:15:29;;;;;;;3.45;0.80;;;;;;;21.07;53.09;100118.19;5138441;27;20054;-59
2023/05/20 11:17:58;;;;;;;5.80;1.20;;;;;;;20.75;52.29;100110.91;5138428;28;20085;-54
2023/05/20 11:20:25;;;;;;;1.10;1.00;;;;;;;21.04;52.58;100125.38;5138435;27;20070;-54
2023/05/20 11:22:52;;;;;;;2.80;1.10;;;;;;;21.07;52.95;100132.13;5138554;28;20046;-61